createdAt,value
2023-02-26T00:01:26.295Z,5.97
2023-02-26T00:03:55.167Z,4.95
2023-02-26T00:06:23.180Z,6.85
2023-02-26T00:08:50.535Z,5.68
2023-02-26T00:11:18.103Z,6.47
2023-02-26T00:13:46.395Z,4.85
2023-02-26T00:16:27.110Z,7.30
2023-02-26T00:18:55.178Z,4.57
2023-02-26T00:21:23.774Z,4.32
2023-02-26T00:23:51.476Z,4.60
2023-02-26T00:26:19.296Z,4.15
2023-02-26T00:28:46.970Z,3.75
2023-02-26T00:31:16.091Z,4.47
2023-02-26T00:33:44.352Z,4.18
2023-02-26T00:36:35.319Z,5.68
2023-02-26T00:39:05.818Z,4.78
2023-02-26T00:41:33.523Z,4.00
2023-02-26T00:44:01.264Z,4.38
2023-02-26T00:46:47.315Z,3.95
2023-02-26T00:49:22.390Z,5.20
2023-02-26T00:51:55.019Z,4.97
2023-02-26T00:54:24.477Z,3.95
2023-02-26T00:56:53.789Z,4.13
2023-02-26T00:59:21.784Z,4.95
2023-02-26T01:01:50.455Z,4.38
2023-02-26T01:04:19.256Z,3.78
2023-02-26T01:06:50.293Z,3.92
2023-02-26T01:09:27.443Z,4.78
2023-02-26T01:11:56.976Z,3.53
2023-02-26T01:14:25.470Z,4.78
2023-02-26T01:16:58.544Z,4.00
2023-02-26T01:19:31.171Z,4.47
2023-02-26T01:22:09.013Z,4.63
2023-02-26T01:24:38.133Z,3.70
2023-02-26T01:27:06.621Z,4.50
2023-02-26T01:29:34.412Z,4.55
2023-02-26T01:32:19.280Z,3.05
2023-02-26T01:34:55.915Z,2.67
2023-02-26T01:37:36.192Z,3.70
2023-02-26T01:40:21.903Z,3.55
2023-02-26T01:42:52.276Z,2.20
2023-02-26T01:45:30.678Z,3.42
2023-02-26T01:48:03.034Z,2.35
2023-02-26T01:50:33.049Z,3.13
2023-02-26T01:53:19.202Z,3.30
2023-02-26T01:55:50.419Z,3.15
2023-02-26T01:58:19.425Z,2.67
2023-02-26T02:00:47.189Z,2.40
2023-02-26T02:03:15.101Z,3.00
2023-02-26T02:05:51.460Z,2.25
2023-02-26T02:08:20.366Z,3.33
2023-02-26T02:10:49.537Z,2.45
2023-02-26T02:13:36.478Z,3.33
2023-02-26T02:16:18.789Z,2.55
2023-02-26T02:18:46.314Z,2.97
2023-02-26T02:21:26.616Z,2.50
2023-02-26T02:24:00.417Z,2.50
2023-02-26T02:26:46.370Z,2.63
2023-02-26T02:29:20.019Z,2.65
2023-02-26T02:31:50.891Z,2.75
2023-02-26T02:34:19.298Z,2.58
2023-02-26T02:36:55.944Z,3.33
2023-02-26T02:39:31.288Z,2.35
2023-02-26T02:42:09.828Z,3.25
2023-02-26T02:44:40.179Z,3.20
2023-02-26T02:47:09.396Z,3.03
2023-02-26T02:49:49.231Z,2.90
2023-02-26T02:52:20.225Z,3.05
2023-02-26T02:55:00.059Z,2.90
2023-02-26T02:57:35.704Z,3.88
2023-02-26T03:00:06.775Z,2.75
2023-02-26T03:02:50.378Z,3.45
2023-02-26T03:07:56.049Z,3.90
2023-02-26T03:10:23.815Z,3.10
2023-02-26T03:12:51.600Z,2.92
2023-02-26T03:15:22.642Z,2.63
2023-02-26T03:17:59.903Z,3.17
2023-02-26T03:20:30.618Z,3.38
2023-02-26T03:23:03.819Z,3.72
2023-02-26T03:25:52.163Z,3.50
2023-02-26T03:28:32.367Z,4.32
2023-02-26T03:31:14.182Z,4.25
2023-02-26T03:33:55.303Z,2.60
2023-02-26T03:36:29.014Z,3.80
2023-02-26T03:39:09.628Z,3.80
2023-02-26T03:41:43.113Z,4.03
2023-02-26T03:44:14.645Z,4.60
2023-02-26T03:46:45.622Z,3.50
2023-02-26T03:49:20.302Z,5.25
2023-02-26T03:51:48.296Z,4.72
2023-02-26T03:54:24.174Z,5.43
2023-02-26T03:56:51.940Z,4.43
2023-02-26T03:59:19.867Z,4.68
2023-02-26T04:01:54.395Z,3.83
2023-02-26T04:04:36.704Z,3.90
2023-02-26T04:07:04.499Z,4.10
2023-02-26T04:09:32.174Z,5.35
2023-02-26T04:12:00.087Z,6.53
2023-02-26T04:14:27.843Z,4.55
2023-02-26T04:16:55.395Z,4.65
2023-02-26T04:19:25.358Z,5.38
2023-02-26T04:21:52.888Z,5.13
2023-02-26T04:24:20.410Z,4.60
2023-02-26T04:26:50.577Z,4.80
2023-02-26T04:29:18.079Z,3.85
2023-02-26T04:31:45.694Z,6.30
2023-02-26T04:34:13.955Z,4.72
2023-02-26T04:36:41.597Z,5.05
2023-02-26T04:39:11.289Z,6.25
2023-02-26T04:41:39.168Z,7.05
2023-02-26T04:44:08.384Z,5.18
2023-02-26T04:46:36.114Z,6.40
2023-02-26T04:49:03.922Z,5.70
2023-02-26T04:51:31.517Z,5.80
2023-02-26T04:53:59.026Z,6.47
2023-02-26T04:56:29.653Z,5.63
2023-02-26T04:58:57.277Z,7.07
2023-02-26T05:01:24.831Z,6.38
2023-02-26T05:03:52.373Z,6.85
2023-02-26T05:06:19.919Z,7.18
2023-02-26T05:08:47.916Z,7.88
2023-02-26T05:11:15.464Z,7.35
2023-02-26T05:13:43.772Z,6.70
2023-02-26T05:16:11.371Z,6.88
2023-02-26T05:18:39.486Z,4.30
2023-02-26T05:21:10.730Z,5.38
2023-02-26T05:23:38.224Z,5.60
2023-02-26T05:26:05.979Z,5.47
2023-02-26T05:28:34.633Z,7.40
2023-02-26T05:31:02.970Z,5.28
2023-02-26T05:33:30.550Z,6.45
2023-02-26T05:35:58.458Z,5.75
2023-02-26T05:38:28.332Z,5.88
2023-02-26T05:40:59.086Z,6.00
2023-02-26T05:43:27.050Z,6.53
2023-02-26T05:45:57.229Z,8.60
2023-02-26T05:48:25.102Z,7.25
2023-02-26T05:50:52.983Z,9.70
2023-02-26T05:53:21.249Z,5.97
2023-02-26T05:55:49.095Z,7.78
2023-02-26T05:58:17.296Z,7.22
2023-02-26T06:00:44.887Z,7.75
2023-02-26T06:03:13.153Z,6.30
2023-02-26T06:05:41.672Z,6.50
2023-02-26T06:08:09.309Z,5.30
2023-02-26T06:10:36.873Z,7.13
2023-02-26T06:13:05.193Z,6.57
2023-02-26T06:15:32.917Z,5.70
2023-02-26T06:18:00.490Z,6.03
2023-02-26T06:20:28.649Z,8.32
2023-02-26T06:22:56.475Z,7.75
2023-02-26T06:25:24.008Z,8.25
2023-02-26T06:27:51.571Z,6.65
2023-02-26T06:30:19.299Z,5.95
2023-02-26T06:32:46.904Z,6.72
2023-02-26T06:35:14.924Z,6.85
2023-02-26T06:37:42.457Z,6.63
2023-02-26T06:40:11.531Z,6.70
2023-02-26T06:42:39.045Z,6.80
2023-02-26T06:45:06.787Z,5.57
2023-02-26T06:47:34.498Z,6.28
2023-02-26T06:50:05.814Z,6.22
2023-02-26T06:52:33.335Z,7.28
2023-02-26T06:55:00.869Z,7.10
2023-02-26T06:57:28.385Z,6.70
2023-02-26T06:59:56.595Z,6.45
2023-02-26T07:02:24.576Z,8.90
2023-02-26T07:04:52.239Z,9.80
2023-02-26T07:07:19.779Z,8.23
2023-02-26T07:09:47.288Z,6.78
2023-02-26T07:12:14.913Z,7.15
2023-02-26T07:14:46.362Z,7.93
2023-02-26T07:17:21.074Z,8.88
2023-02-26T07:19:49.122Z,7.45
2023-02-26T07:22:17.133Z,5.60
2023-02-26T07:24:44.726Z,8.05
2023-02-26T07:27:12.700Z,5.93
2023-02-26T07:29:40.417Z,5.75
2023-02-26T07:32:08.448Z,6.68
2023-02-26T07:34:36.018Z,8.13
2023-02-26T07:37:03.829Z,8.57
2023-02-26T07:39:31.716Z,6.80
2023-02-26T07:41:59.519Z,6.05
2023-02-26T07:44:27.806Z,6.60
2023-02-26T07:46:55.346Z,8.32
2023-02-26T07:49:23.561Z,9.73
2023-02-26T07:51:51.026Z,7.30
2023-02-26T07:54:21.747Z,8.15
2023-02-26T07:56:49.274Z,6.22
2023-02-26T07:59:17.514Z,6.82
2023-02-26T08:01:45.037Z,9.43
2023-02-26T08:04:12.697Z,7.78
2023-02-26T08:06:40.845Z,8.80
2023-02-26T08:09:08.777Z,7.30
2023-02-26T08:11:40.399Z,6.53
2023-02-26T08:14:14.096Z,9.23
2023-02-26T08:16:42.379Z,8.35
2023-02-26T08:19:10.011Z,7.75
2023-02-26T08:21:37.765Z,7.88
2023-02-26T08:24:05.564Z,7.55
2023-02-26T08:26:36.365Z,6.97
2023-02-26T08:29:04.334Z,8.32
2023-02-26T08:31:32.884Z,7.65
2023-02-26T08:34:00.498Z,7.55
2023-02-26T08:36:28.303Z,7.95
2023-02-26T08:38:56.658Z,10.57
2023-02-26T08:41:24.704Z,8.95
2023-02-26T08:43:52.619Z,7.78
2023-02-26T08:46:20.165Z,9.55
2023-02-26T08:48:47.702Z,6.18
2023-02-26T08:51:15.471Z,9.50
2023-02-26T08:53:45.920Z,8.02
2023-02-26T08:56:13.768Z,6.95
2023-02-26T08:58:41.320Z,5.78
2023-02-26T09:01:09.094Z,9.20
2023-02-26T09:03:36.658Z,7.40
2023-02-26T09:06:05.495Z,10.20
2023-02-26T09:08:36.388Z,10.75
2023-02-26T09:11:04.487Z,9.15
2023-02-26T09:13:32.352Z,6.80
2023-02-26T09:15:59.954Z,8.15
2023-02-26T09:18:28.235Z,6.82
2023-02-26T09:20:55.821Z,10.77
2023-02-26T09:23:23.417Z,6.97
2023-02-26T09:25:57.776Z,7.80
2023-02-26T09:28:26.340Z,9.65
2023-02-26T09:30:55.174Z,8.02
2023-02-26T09:33:22.775Z,9.40
2023-02-26T09:35:51.586Z,10.25
2023-02-26T09:38:19.776Z,6.80
2023-02-26T09:40:56.621Z,8.38
2023-02-26T09:43:42.649Z,5.47
2023-02-26T09:46:17.315Z,8.13
2023-02-26T09:48:46.099Z,8.07
2023-02-26T09:51:17.937Z,6.90
2023-02-26T09:53:45.823Z,7.05
2023-02-26T09:56:21.143Z,7.72
2023-02-26T09:58:48.711Z,6.80
2023-02-26T10:01:36.972Z,7.43
2023-02-26T10:04:23.228Z,8.63
2023-02-26T10:07:17.028Z,5.57
2023-02-26T10:10:02.867Z,6.78
2023-02-26T10:12:33.176Z,6.45
2023-02-26T10:15:14.109Z,8.05
2023-02-26T10:17:41.672Z,9.57
2023-02-26T10:20:15.894Z,7.28
2023-02-26T10:22:55.906Z,9.23
2023-02-26T10:25:26.330Z,7.35
2023-02-26T10:28:02.522Z,9.23
2023-02-26T10:30:50.860Z,7.18
2023-02-26T10:33:37.610Z,7.38
2023-02-26T10:36:26.143Z,7.47
2023-02-26T10:38:58.204Z,7.85
2023-02-26T10:41:29.819Z,6.10
2023-02-26T10:44:15.957Z,9.48
2023-02-26T10:46:52.639Z,8.23
2023-02-26T10:49:38.785Z,7.38
2023-02-26T10:52:25.187Z,8.85
2023-02-26T10:54:58.867Z,6.13
2023-02-26T10:57:29.552Z,7.13
2023-02-26T10:59:57.082Z,8.65
2023-02-26T11:02:33.765Z,9.18
2023-02-26T11:05:07.456Z,9.20
2023-02-26T11:07:37.453Z,7.13
2023-02-26T11:10:05.125Z,7.50
2023-02-26T11:12:33.478Z,9.68
2023-02-26T11:15:02.356Z,6.15
2023-02-26T11:17:33.085Z,7.30
2023-02-26T11:20:03.206Z,6.35
2023-02-26T11:22:33.198Z,7.82
2023-02-26T11:25:01.006Z,8.18
2023-02-26T11:27:32.763Z,6.80
2023-02-26T11:30:03.992Z,8.48
2023-02-26T11:32:32.985Z,7.70
2023-02-26T11:35:00.858Z,8.02
2023-02-26T11:37:35.090Z,8.93
2023-02-26T11:40:11.884Z,7.70
2023-02-26T11:42:41.392Z,6.63
2023-02-26T11:45:09.218Z,4.10
2023-02-26T11:47:36.811Z,8.10
2023-02-26T11:50:12.081Z,6.68
2023-02-26T11:52:43.804Z,5.57
2023-02-26T11:55:22.235Z,6.97
2023-02-26T11:57:54.812Z,7.35
2023-02-26T12:00:25.982Z,6.40
2023-02-26T12:02:57.755Z,6.35
2023-02-26T12:05:25.469Z,7.38
2023-02-26T12:07:53.055Z,7.93
2023-02-26T12:10:29.278Z,6.90
2023-02-26T12:12:56.828Z,7.13
2023-02-26T12:15:27.396Z,6.20
2023-02-26T12:17:55.116Z,8.18
2023-02-26T12:20:32.421Z,8.55
2023-02-26T12:23:28.166Z,5.05
2023-02-26T12:26:14.463Z,8.48
2023-02-26T12:29:00.099Z,6.10
2023-02-26T12:31:42.958Z,5.32
2023-02-26T12:34:32.999Z,7.13
2023-02-26T12:37:06.351Z,5.03
2023-02-26T12:42:11.238Z,8.05
2023-02-26T12:44:52.059Z,8.18
2023-02-26T12:47:33.968Z,6.88
2023-02-26T12:50:20.592Z,7.30
2023-02-26T12:52:48.139Z,7.03
2023-02-26T12:55:23.030Z,9.07
2023-02-26T12:58:09.184Z,6.75
2023-02-26T13:00:44.633Z,7.35
2023-02-26T13:03:31.808Z,6.28
2023-02-26T13:05:59.738Z,5.47
2023-02-26T13:08:34.103Z,7.30
2023-02-26T13:11:20.192Z,7.50
2023-02-26T13:13:48.248Z,4.78
2023-02-26T13:16:22.365Z,6.35
2023-02-26T13:18:49.935Z,5.65
2023-02-26T13:21:23.509Z,6.68
2023-02-26T13:24:17.330Z,8.73
2023-02-26T13:26:48.677Z,7.38
2023-02-26T13:29:20.232Z,7.13
2023-02-26T13:32:01.832Z,7.00
2023-02-26T13:34:49.317Z,9.57
2023-02-26T13:37:43.193Z,5.97
2023-02-26T13:42:49.299Z,5.57
2023-02-26T13:45:23.232Z,6.25
2023-02-26T13:47:50.979Z,4.90
2023-02-26T13:50:24.433Z,8.10
2023-02-26T13:53:03.613Z,7.00
2023-02-26T13:55:48.041Z,7.25
2023-02-26T13:58:21.525Z,7.28
2023-02-26T14:00:58.535Z,6.25
2023-02-26T14:03:28.609Z,5.93
2023-02-26T14:05:56.075Z,7.05
2023-02-26T14:08:41.497Z,6.95
2023-02-26T14:11:20.857Z,7.63
2023-02-26T14:14:07.048Z,6.38
2023-02-26T14:16:40.154Z,6.47
2023-02-26T14:19:26.219Z,8.52
2023-02-26T14:21:59.646Z,6.00
2023-02-26T14:27:14.600Z,6.60
2023-02-26T14:30:08.169Z,8.38
2023-02-26T14:32:53.978Z,6.80
2023-02-26T14:35:24.536Z,8.38
2023-02-26T14:37:58.342Z,6.30
2023-02-26T14:40:26.553Z,6.28
2023-02-26T14:42:59.042Z,7.82
2023-02-26T14:45:29.614Z,5.55
2023-02-26T14:48:01.249Z,5.18
2023-02-26T14:50:34.086Z,8.05
2023-02-26T14:53:14.286Z,8.00
2023-02-26T14:56:04.758Z,7.00
2023-02-26T14:58:32.325Z,6.03
2023-02-26T15:01:19.541Z,5.93
2023-02-26T15:03:54.283Z,7.88
2023-02-26T15:06:37.400Z,9.30
2023-02-26T15:09:11.028Z,5.43
2023-02-26T15:11:41.570Z,8.02
2023-02-26T15:14:18.349Z,7.70
2023-02-26T15:16:46.504Z,8.10
2023-02-26T15:19:43.341Z,6.95
2023-02-26T15:22:13.957Z,6.57
2023-02-26T15:24:41.869Z,8.80
2023-02-26T15:27:12.277Z,5.28
2023-02-26T15:29:41.271Z,5.43
2023-02-26T15:32:24.077Z,8.00
2023-02-26T15:35:10.165Z,6.50
2023-02-26T15:37:37.625Z,5.53
2023-02-26T15:40:06.008Z,6.60
2023-02-26T15:42:35.104Z,6.22
2023-02-26T15:45:03.682Z,9.63
2023-02-26T15:47:31.813Z,7.13
2023-02-26T15:49:59.894Z,8.77
2023-02-26T15:52:27.981Z,6.68
2023-02-26T15:54:57.551Z,6.10
2023-02-26T15:57:26.106Z,5.88
2023-02-26T15:59:55.701Z,5.50
2023-02-26T16:02:26.891Z,4.68
2023-02-26T16:04:57.837Z,6.28
2023-02-26T16:07:25.675Z,6.07
2023-02-26T16:09:54.896Z,5.90
2023-02-26T16:12:26.423Z,7.03
2023-02-26T16:15:01.970Z,7.32
2023-02-26T16:17:35.456Z,4.47
2023-02-26T16:20:05.056Z,7.03
2023-02-26T16:22:35.291Z,5.60
2023-02-26T16:25:25.133Z,7.38
2023-02-26T16:28:01.026Z,5.55
2023-02-26T16:30:33.070Z,6.88
2023-02-26T16:33:01.468Z,5.80
2023-02-26T16:35:39.222Z,5.78
2023-02-26T16:38:12.497Z,4.32
2023-02-26T16:43:28.481Z,5.70
2023-02-26T16:45:56.957Z,5.15
2023-02-26T16:48:32.619Z,3.50
2023-02-26T16:51:01.881Z,3.70
2023-02-26T16:53:34.946Z,3.50
2023-02-26T16:56:02.637Z,4.75
2023-02-26T16:58:31.847Z,2.40
2023-02-26T17:01:07.710Z,5.25
2023-02-26T17:03:38.700Z,2.40
2023-02-26T17:06:08.949Z,4.63
2023-02-26T17:08:43.785Z,4.55
2023-02-26T17:11:19.340Z,4.82
2023-02-26T17:13:46.868Z,2.95
2023-02-26T17:16:23.926Z,2.78
2023-02-26T17:18:51.668Z,2.90
2023-02-26T17:21:21.616Z,3.15
2023-02-26T17:23:49.355Z,3.05
2023-02-26T17:26:16.804Z,2.72
2023-02-26T17:28:44.455Z,3.25
2023-02-26T17:31:13.407Z,4.53
2023-02-26T17:33:43.913Z,3.72
2023-02-26T17:36:19.428Z,2.38
2023-02-26T17:38:48.323Z,3.50
2023-02-26T17:41:17.289Z,3.50
2023-02-26T17:43:44.883Z,2.85
2023-02-26T17:46:13.078Z,2.03
2023-02-26T17:48:41.646Z,3.45
2023-02-26T17:51:10.012Z,3.88
2023-02-26T17:53:41.597Z,3.70
2023-02-26T17:56:14.730Z,3.28
2023-02-26T17:58:42.335Z,3.65
2023-02-26T18:01:10.954Z,4.10
2023-02-26T18:03:40.785Z,2.97
2023-02-26T18:06:08.597Z,2.90
2023-02-26T18:08:36.206Z,4.05
2023-02-26T18:11:06.551Z,2.80
2023-02-26T18:13:35.166Z,2.08
2023-02-26T18:16:03.495Z,2.03
2023-02-26T18:18:31.533Z,3.05
2023-02-26T18:20:59.175Z,2.15
2023-02-26T18:23:26.677Z,1.55
2023-02-26T18:25:55.362Z,2.53
2023-02-26T18:28:24.181Z,2.47
2023-02-26T18:30:53.081Z,2.63
2023-02-26T18:33:22.284Z,2.42
2023-02-26T18:35:53.818Z,1.98
2023-02-26T18:38:23.744Z,2.33
2023-02-26T18:40:51.902Z,2.53
2023-02-26T18:43:22.720Z,2.92
2023-02-26T18:45:51.106Z,1.95
2023-02-26T18:48:19.934Z,2.10
2023-02-26T18:50:48.104Z,1.98
2023-02-26T18:53:17.923Z,2.17
2023-02-26T18:55:45.457Z,1.27
2023-02-26T18:58:14.470Z,2.75
2023-02-26T19:00:42.524Z,2.25
2023-02-26T19:03:10.823Z,2.13
2023-02-26T19:05:38.662Z,2.17
2023-02-26T19:08:06.772Z,4.28
2023-02-26T19:10:34.992Z,2.53
2023-02-26T19:13:02.922Z,2.00
2023-02-26T19:15:31.102Z,2.00
2023-02-26T19:17:58.678Z,2.95
2023-02-26T19:20:26.666Z,2.97
2023-02-26T19:22:54.225Z,4.32
2023-02-26T19:25:24.694Z,1.98
2023-02-26T19:27:54.592Z,3.10
2023-02-26T19:30:24.480Z,3.03
2023-02-26T19:32:53.461Z,2.50
2023-02-26T19:35:21.461Z,4.25
2023-02-26T19:37:49.352Z,2.25
2023-02-26T19:40:17.616Z,2.30
2023-02-26T19:42:45.234Z,3.33
2023-02-26T19:45:13.805Z,2.42
2023-02-26T19:47:41.603Z,1.85
2023-02-26T19:50:09.437Z,2.22
2023-02-26T19:52:38.759Z,2.30
2023-02-26T19:55:08.192Z,2.20
2023-02-26T19:57:35.684Z,3.05
2023-02-26T20:00:04.035Z,2.22
2023-02-26T20:02:31.565Z,1.88
2023-02-26T20:04:59.542Z,2.67
2023-02-26T20:07:27.248Z,2.92
2023-02-26T20:09:57.416Z,2.90
2023-02-26T20:12:25.661Z,2.10
2023-02-26T20:14:53.665Z,2.65
2023-02-26T20:17:21.161Z,2.10
2023-02-26T20:19:48.977Z,2.05
2023-02-26T20:22:17.640Z,2.13
2023-02-26T20:24:45.104Z,5.82
2023-02-26T20:27:12.630Z,2.30
2023-02-26T20:29:40.171Z,3.25
2023-02-26T20:32:08.109Z,2.22
2023-02-26T20:34:35.767Z,2.33
2023-02-26T20:37:03.342Z,2.80
2023-02-26T20:39:32.002Z,2.78
2023-02-26T20:41:59.528Z,1.88
2023-02-26T20:44:27.119Z,3.20
2023-02-26T20:46:55.596Z,3.42
2023-02-26T20:49:23.904Z,2.60
2023-02-26T20:51:51.874Z,1.80
2023-02-26T20:54:20.890Z,2.38
2023-02-26T20:56:49.487Z,2.75
2023-02-26T20:59:18.597Z,4.07
2023-02-26T21:01:46.609Z,2.38
2023-02-26T21:04:14.198Z,2.60
2023-02-26T21:06:41.999Z,3.30
2023-02-26T21:09:11.740Z,2.85
2023-02-26T21:11:39.631Z,2.53
2023-02-26T21:14:08.606Z,3.28
2023-02-26T21:16:36.829Z,2.20
2023-02-26T21:19:05.163Z,3.60
2023-02-26T21:21:33.099Z,2.22
2023-02-26T21:24:00.772Z,3.05
2023-02-26T21:26:28.350Z,2.65
2023-02-26T21:28:55.929Z,4.35
2023-02-26T21:31:26.532Z,3.80
2023-02-26T21:33:54.871Z,2.53
2023-02-26T21:36:22.801Z,3.60
2023-02-26T21:38:50.414Z,3.22
2023-02-26T21:41:18.474Z,3.30
2023-02-26T21:43:46.268Z,3.38
2023-02-26T21:46:15.608Z,5.43
2023-02-26T21:48:43.125Z,3.10
2023-02-26T21:51:10.785Z,2.83
2023-02-26T21:53:38.297Z,1.92
2023-02-26T21:56:05.905Z,2.75
2023-02-26T21:58:34.448Z,4.78
2023-02-26T22:01:02.027Z,2.30
2023-02-26T22:03:29.503Z,3.95
2023-02-26T22:05:57.640Z,3.53
2023-02-26T22:08:27.765Z,2.45
2023-02-26T22:10:55.251Z,3.22
2023-02-26T22:13:22.858Z,3.85
2023-02-26T22:15:50.303Z,2.67
2023-02-26T22:18:18.024Z,2.35
2023-02-26T22:20:46.504Z,5.40
2023-02-26T22:23:14.028Z,3.15
2023-02-26T22:25:41.560Z,3.63
2023-02-26T22:28:09.189Z,3.08
2023-02-26T22:30:36.896Z,3.53
2023-02-26T22:33:04.614Z,3.92
2023-02-26T22:35:35.564Z,2.97
2023-02-26T22:38:03.085Z,4.03
2023-02-26T22:40:31.060Z,2.42
2023-02-26T22:42:58.839Z,4.97
2023-02-26T22:45:26.419Z,2.25
2023-02-26T22:47:54.238Z,6.82
2023-02-26T22:50:24.561Z,3.17
2023-02-26T22:52:52.178Z,2.60
2023-02-26T22:55:19.772Z,2.65
2023-02-26T22:57:47.365Z,3.17
2023-02-26T23:00:16.390Z,3.92
2023-02-26T23:02:44.017Z,2.05
2023-02-26T23:05:11.652Z,2.90
2023-02-26T23:07:39.764Z,2.58
2023-02-26T23:10:08.844Z,4.07
2023-02-26T23:12:36.389Z,6.13
2023-02-26T23:15:03.964Z,3.65
2023-02-26T23:17:31.405Z,4.32
2023-02-26T23:19:58.975Z,4.70
2023-02-26T23:22:26.590Z,3.28
2023-02-26T23:24:54.204Z,3.47
2023-02-26T23:27:21.788Z,3.55
2023-02-26T23:29:49.305Z,3.72
2023-02-26T23:32:17.029Z,3.97
2023-02-26T23:34:44.602Z,3.78
2023-02-26T23:37:12.077Z,2.67
2023-02-26T23:39:39.605Z,3.70
2023-02-26T23:42:07.323Z,4.07
2023-02-26T23:44:34.853Z,2.83
2023-02-26T23:47:02.549Z,3.88
2023-02-26T23:49:30.083Z,3.75
2023-02-26T23:51:57.555Z,2.75
2023-02-26T23:54:25.044Z,4.47
2023-02-26T23:56:52.571Z,3.00
2023-02-26T23:59:20.105Z,2.60
